x

St Georges - 8nm Nw Of Crescent City, Ca (46027) Wave Buoy

1:50am - Thu 28th Aug 2014 All times are PDT. -7 hours from GMT.

  • Sig Wave height 3.6ft
  • Swell Direction
  • Peak Period 8s
  • Average Period 6s
  • Wind
    2mph, 4mph gusts
  • Sea Temp 54°f
  • Air Temp 48°f
  • Sea Pressure 1018.9mb
  • St Georges - 8nm Nw Of Crescent City, Ca
  • St Georges - 8nm Nw Of Crescent City, Ca

More Historic Weather Station data

Upgrade to MSW Pro to gain access to the past 30 days of data for over 8000 Wavebouys and Weather Stations around the globe.

Join Pro

Comparision Forecast

View Surf forecast
   
Thu 08/28 1:50am 3.5ft 8s 6s 2 4 mph 1018.9mb 54f 48f
12:50am 3.5ft 6s 6s 7 9 mph 1018.7mb 54f 49f
Wed 08/27 11:50pm 3.5ft 6s 6s 7
mph
1018.6mb 54f 49f
10:50pm 3.5ft 16s 6s 4 7 mph 1018.8mb 53f 49f
9:50pm 3.5ft 6s 6s 4
mph
1019mb 53f 49f
8:50pm 3.5ft 6s 6s 4 7 mph 1019mb 53f 50f
7:50pm 3.5ft 16s 6s 11
mph
1019mb 54f 51f
6:50pm 3.5ft 16s 6s 7 9 mph 1018.8mb 55f 50f
5:50pm 3.5ft 6s 6s 7 9 mph 1019.1mb 55f 51f
4:50pm 3.5ft 6s 6s 4 7 mph 1019.4mb 55f 52f
3:50pm  -   -   -  2 4 mph 1019.5mb 55f 52f
2:50pm 3.5ft 7s 6s 4
mph
1019.5mb 57f 52f
1:50pm 3.5ft 7s 6s 2 4 mph 1019.2mb 55f 52f
12:50pm 3.5ft 6s 6s 2 4 mph 1019.5mb 55f 52f
11:50am 3ft 6s 6s 2
mph
1019.8mb 54f 51f
10:50am 3ft 16s 6s 4
mph
1019.7mb 54f 49f
9:50am 3.5ft 7s 6s 2
mph
1019.4mb 54f 50f
8:50am 3ft 7s 6s  -  2 mph 1019.4mb 53f 49f
7:50am 3.5ft 7s 6s  -  2 mph 1019.1mb 53f 48f
6:50am 3.5ft 7s 6s  -  2 mph 1018.8mb 53f 47f
5:50am 3.5ft 7s 6s 2
mph
1018mb 53f 47f
4:50am 3.5ft 7s 6s 2 4 mph 1017.8mb 53f 47f
3:50am 4ft 7s 6s 2 4 mph 1017.5mb 53f 48f
2:50am 3.5ft 7s 6s 2 4 mph 1017.7mb 53f 47f
1:50am 3.5ft 7s 6s  -  2 mph 1017.7mb 52f 47f
12:50am 4ft 7s 6s 2 4 mph 1017.6mb 52f 48f
Tue 08/26 11:50pm 3.5ft 7s 6s 4 7 mph 1017.9mb 53f 48f
10:50pm  -   -   -  4
mph
1018.3mb 53f 48f
9:50pm 4ft 8s 6s 2 4 mph 1018.2mb 53f 49f
8:50pm 4.5ft 8s 6s  -  mph 1017.8mb 53f 49f
7:50pm 5ft 8s 6s 2 4 mph 1017.8mb 54f 50f
6:50pm 4.5ft 7s 6s 4
mph
1018.1mb 54f 51f
5:50pm 4.5ft 8s 6s 2
mph
1018.1mb 54f 52f
4:50pm 4.5ft 7s 6s 2 4 mph 1018.1mb 54f 52f
3:50pm 4.5ft 8s 6s 4
mph
1018.4mb 54f 53f
2:50pm 5ft 8s 7s  -  2 mph 1018.5mb 54f 54f
1:50pm 4.5ft 8s 6s 2
mph
1018.7mb 53f 52f
12:50pm 5ft 8s 6s 4 7 mph 1018.5mb 53f 51f
11:50am  -   -   -  2 4 mph 1018.7mb 53f 52f
10:50am 5ft 8s 7s 2 4 mph 1018.7mb 52f 51f
9:50am 5.5ft 8s 6s 4 7 mph 1018.6mb 52f 50f
8:50am 6ft 8s 6s 4 7 mph 1018.3mb 52f 50f
7:50am 6ft 8s 6s 4 7 mph 1017.8mb 52f 49f
6:50am 6.5ft 8s 7s 7 9 mph 1017.3mb 52f 49f
5:50am 6ft 8s 6s 7 9 mph 1016.7mb 52f 49f
4:50am  -   -   -  4 9 mph 1016.4mb 52f 50f
3:50am 6ft 8s 7s 7 9 mph 1015.9mb 52f 50f
2:50am 6ft 8s 7s 7 9 mph 1015.6mb 52f 50f
1:50am 5.5ft 8s 6s 11 16 mph 1015.2mb 52f 50f
12:50am 6ft 9s 7s 9 13 mph 1015mb 52f 50f
Mon 08/25 11:50pm 7ft 9s 7s 11 16 mph 1014.5mb 52f 50f
10:50pm 6.5ft 9s 6s 11 16 mph 1014.1mb 51f 50f
9:50pm 7.5ft 8s 7s 13 16 mph 1013.9mb 51f 50f
8:50pm 7ft 9s 6s 13 18 mph 1013.3mb 51f 50f
7:50pm 7ft 9s 6s 16 20 mph 1012.3mb 51f 50f
6:50pm 8ft 8s 6s 13 16 mph 1012.1mb 51f 50f
5:50pm 7.5ft 8s 7s 16 22 mph 1011.8mb 52f 50f
4:50pm 7ft 8s 6s 16 18 mph 1011.7mb 52f 50f
3:50pm 6.5ft 8s 6s 16 18 mph 1011.9mb 52f 50f
2:50pm 7.5ft 8s 7s 11 16 mph 1011.8mb 52f 49f
1:50pm 6ft 8s 6s 9 11 mph 1011.8mb 52f 49f
12:50pm 6ft 7s 6s 7 9 mph 1012mb 52f 48f
11:50am 6.5ft 8s 6s 4 7 mph 1012mb 52f 48f
10:50am 6.5ft 8s 6s 2 4 mph 1012.3mb 51f 49f
9:50am 6ft 8s 6s 4 7 mph 1012.5mb 51f 49f
8:50am 5ft 8s 6s 2 4 mph 1012.4mb 51f 50f
7:50am 5ft 7s 6s 2 4 mph 1012.2mb 51f 49f
6:50am 5ft 8s 6s 4
mph
1012mb 51f 50f
5:50am 5.5ft 7s 6s 4
mph
1011.3mb 51f 50f
4:50am 5.5ft 7s 6s 2
mph
1011.2mb 52f 50f
3:50am 5.5ft 7s 6s 4 7 mph 1011.4mb 53f 50f
2:50am 6ft 7s 6s 11 13 mph 1011.6mb 53f 51f
1:50am 5.5ft 8s 6s 11 13 mph 1012mb 53f 51f
12:50am 5.5ft 7s 6s 11 13 mph 1012mb 52f 51f
Sun 08/24 11:50pm 5.5ft 7s 6s 11 13 mph 1012mb 52f 50f
10:50pm 5.5ft 8s 6s 11 13 mph 1011.8mb 52f 50f
9:50pm  -   -   -  13 16 mph 1011.3mb 52f 50f
8:50pm 7.5ft 8s 6s 20 25 mph 1011.1mb 52f 51f
7:50pm 8ft 7s 6s 22 27 mph 1011.1mb 52f 51f
6:50pm 7ft 8s 6s 20 25 mph 1011.2mb 52f 51f
5:50pm 7.5ft 8s 6s 25 29 mph 1011.4mb 52f 51f
4:50pm 7ft 8s 6s 18 22 mph 1012.2mb 52f 52f
3:50pm 8ft 8s 6s 16 18 mph 1012.6mb 52f 52f
2:50pm  -   -   -  13 18 mph 1012.5mb 51f 51f
1:50pm 9ft 8s 6s 20 27 mph 1012.5mb 51f 51f
12:50pm 8.5ft 8s 6s 20 25 mph 1013mb 50f 50f
11:50am 9ft 8s 6s 22 27 mph 1013.1mb 50f 50f
10:50am 9ft 8s 6s 22 27 mph 1013.1mb 50f 49f